Flight Track Log - Related Links

Times and Time Zones

All times are in EST time to prevent confusion due to time zone crossing. See the VH-DNV flight status page for this flight to view local times or setup timezone preferences in your user account.

Time Position Orientation Groundspeed Altitude Reporting Facility
EST Latitude Longitude Course Direction KTS MPH feet Rate Location/Type
Sun 06:37:29 PM -28.1644 153.5048 210° Southwest 4,500  Level Aus ATC (Calculated)
Sun 06:40:00 PM -28.2172 153.4893 194° South  Level Estimated
Sun 06:40:28 PM -28.2113 153.4742 194° South 82 94 2,500  Level Aus ATC (RADAR)
Sun 06:41:08 PM -28.2211 153.4602 232° Southwest 85 98 2,800 635 Climbing Aus ATC (RADAR)
Sun 06:41:53 PM -28.2349 153.4487 216° Southwest 83 96 3,400 675 Climbing Aus ATC (RADAR)
Sun 06:42:28 PM -28.2455 153.4411 212° Southwest 77 89 3,700 494 Climbing Aus ATC (RADAR)
Sun 06:43:18 PM -28.2588 153.4287 219° Southwest 75 86 4,100 480 Climbing Aus ATC (RADAR)
Sun 06:43:43 PM -28.2647 153.4223 224° Southwest 71 82 4,300 240 Climbing Aus ATC (RADAR)
Sun 06:44:58 PM -28.2988 153.4163 189° South 111 128 4,500 114 Climbing Aus ATC (RADAR)
Sun 06:45:28 PM -28.3130 153.4117 196° South 105 121 4,500  Level Aus ATC (RADAR)
Sun 06:45:53 PM -28.3248 153.4094 190° South 105 121 4,500  Level Aus ATC (RADAR)
Sun 06:46:28 PM -28.3415 153.4077 185° South 104 120 4,500  Level Aus ATC (RADAR)
Sun 06:47:07 PM -28.3608 153.4053 186° South 104 120 4,500  Level Aus ATC (RADAR)
Sun 06:47:42 PM -28.3711 153.3930 226° Southwest 96 110 4,500 -71 Level Aus ATC (RADAR)
Sun 06:48:32 PM -28.3798 153.3709 246° West 92 106 4,400 -92 Descending Aus ATC (RADAR)
Sun 06:48:47 PM -28.3817 153.3637 253° West 93 107 4,400  Level Aus ATC (RADAR)
Sun 06:50:02 PM -28.4008 153.3320 236° Southwest 99 114 4,400  Level Aus ATC (RADAR)
Sun 06:50:27 PM -28.4086 153.3220 228° Southwest 101 116 4,400  Level Aus ATC (RADAR)
Sun 06:50:52 PM -28.4154 153.3114 234° Southwest 99 114 4,400 185 Level Aus ATC (RADAR)
Sun 06:51:32 PM -28.4284 153.2968 225° Southwest 100 115 4,600 71 Climbing Aus ATC (RADAR)
Sun 06:52:17 PM -28.4439 153.2817 221° Southwest 98 113 4,500 -150 Descending Aus ATC (RADAR)
Sun 06:52:52 PM -28.4575 153.2695 218° Southwest 107 123 4,400 -71 Descending Aus ATC (RADAR)
Sun 06:53:42 PM -28.4756 153.2514 221° Southwest 103 119 4,400  Level Aus ATC (RADAR)
Sun 06:54:07 PM -28.4839 153.2423 224° Southwest 101 116 4,400 -57 Level Aus ATC (RADAR)
Sun 06:55:27 PM -28.5123 153.2166 218° Southwest 97 112 4,300 -57 Descending Aus ATC (RADAR)
Sun 06:55:52 PM -28.5210 153.2088 218° Southwest 96 110 4,300 203 Level Aus ATC (RADAR)
Sun 06:56:26 PM -28.5327 153.1973 221° Southwest 96 110 4,500 214 Climbing Aus ATC (RADAR)
Sun 06:57:16 PM -28.5517 153.1812 217° Southwest 103 119 4,600 -71 Climbing Aus ATC (RADAR)
Sun 06:57:51 PM -28.5657 153.1688 218° Southwest 110 127 4,400 -225 Descending Aus ATC (RADAR)
Sun 06:58:36 PM -28.5826 153.1522 221° Southwest 106 122 4,300 -86 Descending Aus ATC (RADAR)
Sun 06:59:01 PM -28.5922 153.1439 217° Southwest 106 122 4,300 189 Level Aus ATC (RADAR)
Sun 07:00:11 PM -28.6217 153.1243 210° Southwest 108 124 4,600 126 Climbing Aus ATC (RADAR)
Sun 07:00:36 PM -28.6326 153.1178 208° Southwest 107 123 4,500 -120 Descending Aus ATC (RADAR)
Sun 07:01:01 PM -28.6434 153.1105 211° Southwest 108 124 4,500  Level Aus ATC (RADAR)
Sun 07:01:36 PM -28.6586 153.1006 210° Southwest 109 125 4,500 -71 Level Aus ATC (RADAR)
Sun 07:02:26 PM -28.6800 153.0857 212° Southwest 106 122 4,400 -71 Descending Aus ATC (RADAR)
Sun 07:03:01 PM -28.6948 153.0759 210° Southwest 106 122 4,400  Level Aus ATC (RADAR)
Sun 07:03:46 PM -28.7136 153.0653 206° Southwest 101 116 4,400  Level Aus ATC (RADAR)
Sun 07:04:11 PM -28.7197 153.0519 243° Southwest 104 120 4,400 55 Level Aus ATC (RADAR)
Sun 07:05:36 PM -28.7595 153.0358 200° South 111 128 4,500 53 Climbing Aus ATC (RADAR)
Sun 07:06:05 PM -28.7717 153.0278 210° Southwest 103 119 4,500 -111 Level Aus ATC (RADAR)
Sun 07:06:30 PM -28.7821 153.0198 214° Southwest 107 123 4,400 -100 Descending Aus ATC (RADAR)
Sun 07:07:05 PM -28.7954 153.0072 220° Southwest 107 123 4,400 86 Level Aus ATC (RADAR)
Sun 07:07:40 PM -28.8104 152.9980 208° Southwest 104 120 4,500  Climbing Aus ATC (RADAR)
Sun 07:08:15 PM -28.8272 152.9912 200° South 110 127 4,400 -71 Descending Aus ATC (RADAR)
Sun 07:09:05 PM -28.8500 152.9801 203° Southwest 108 124 4,400 -36 Level Aus ATC (RADAR)
Sun 07:12:20 PM -28.9518 152.9459 222° Southwest 4,500 -39 Climbing Aus ATC (Calculated)
Sun 07:14:00 PM -28.9878 152.9496 175° South  Level Estimated
Sun 07:15:00 PM -29.0094 152.9518 175° South  Level Estimated
Sun 07:16:00 PM -29.0310 152.9541 175° South  Level Estimated
Sun 07:17:00 PM -29.0526 152.9563 175° South  Level Estimated
Sun 07:18:00 PM -29.0742 152.9586 175° South  Level Estimated
Sun 07:19:00 PM -29.0958 152.9608 175° South  Level Estimated
Sun 07:19:19 PM -29.1153 152.7797 175° South 105 121 4,000  Level Aus ATC (RADAR)
Sun 07:19:44 PM -29.1255 152.7727 211° Southwest 104 120 4,000 57 Level Aus ATC (RADAR)
Sun 07:21:04 PM -29.1594 152.7449 216° Southwest 113 130 4,100  Climbing Aus ATC (RADAR)
Sun 07:21:24 PM -29.1681 152.7381 214° Southwest 114 131 4,000 37 Descending Aus ATC (RADAR)
Sun 07:23:00 PM -29.2000 152.7537 157° South  Level Estimated
Sun 07:30:00 PM -29.3395 152.8223 157° South  Level Estimated
Sun 07:31:00 PM -29.3595 152.8321 157° South  Level Estimated
Sun 07:31:58 PM -29.4506 152.5511 157° South 112 129 4,500  Level Aus ATC (RADAR)
Sun 07:32:00 PM -29.3794 152.8419 157° South  Level Estimated
Sun 07:32:33 PM -29.4667 152.5404 210° Southwest 113 130 4,400  Level Aus ATC (RADAR)
Sun 07:33:08 PM -29.4822 152.5311 208° Southwest 108 124 4,400 29 Level Aus ATC (RADAR)
Sun 07:36:03 PM -29.5566 152.4954 203° Southwest 93 107 4,500 60 Climbing Aus ATC (RADAR)
Sun 07:36:28 PM -29.5520 152.5152 75° East 143 165 4,600  Climbing Aus ATC (RADAR)
Sun 07:37:03 PM -29.5448 152.5349 67° East 120 138 4,500 -76 Descending Aus ATC (RADAR)
Sun 07:37:47 PM -29.5365 152.5628 71° East 118 136 4,500 -152 Level Aus ATC (RADAR)
Sun 07:38:22 PM -29.5301 152.5833 70° East 116 133 4,300  Descending Aus ATC (RADAR)
Sun 07:39:12 PM -29.5220 152.6128 72° East 115 132 4,500  Climbing Aus ATC (RADAR)
Sun 07:39:37 PM -29.5175 152.6275 71° East 115 132 4,300  Descending Aus ATC (RADAR)
Sun 07:40:12 PM -29.5112 152.6474 70° East 116 133 4,500 63 Climbing Aus ATC (RADAR)
Sun 07:41:12 PM -29.5015 152.6824 72° East 112 129 4,400 -71 Descending Aus ATC (RADAR)
Sun 07:41:37 PM -29.4977 152.6983 75° East 118 136 4,400 200 Level Aus ATC (RADAR)
Sun 07:42:12 PM -29.4936 152.7218 79° East 124 143 4,600  Climbing Aus ATC (RADAR)
Sun 07:43:02 PM -29.4868 152.7535 76° East 123 142 4,400 -141 Descending Aus ATC (RADAR)
Sun 07:43:37 PM -29.4825 152.7762 78° East 123 142 4,400 -75 Level Aus ATC (RADAR)
Sun 07:44:22 PM -29.4769 152.8050 78° East 121 139 4,300 -92 Descending Aus ATC (RADAR)
Sun 07:44:42 PM -29.4741 152.8162 74° East 117 135 4,300 -134 Level Aus ATC (RADAR)
Sun 07:46:36 PM -29.4601 152.8901 78° East 120 138 4,000 -158 Descending Aus ATC (RADAR)
Sun 07:49:47 PM -29.6096 152.9615 158° South -1,257 Descending Aus ATC (Calculated)
Sun 07:51:00 PM -29.6341 152.9727 158° South  Level Estimated
Sun 07:52:00 PM -29.6542 152.9819 158° South  Level Estimated
Sun 07:53:00 PM -29.6744 152.9911 158° South  Level Estimated
Sun 07:54:00 PM -29.6946 153.0003 158° South  Level Estimated
Sun 07:55:00 PM -29.7147 153.0095 158° South  Level Estimated
Sun 07:56:00 PM -29.7349 153.0188 158° South  Level Estimated
Sun 07:57:00 PM -29.7550 153.0280 158° South  Level Estimated
Sun 07:58:00 PM -29.7594 153.0300 158° South  Level Estimated
Sun 07:59:00 PM -29.7594 153.0300 180° South  Level Estimated

Login

Don't have an account? Register now (free) for customized features, flight alerts, and more!